createdAt,value
2018-04-29T00:00:39.713Z,1000.53
2018-04-29T00:01:39.692Z,1000.57
2018-04-29T00:02:39.670Z,1000.56
2018-04-29T00:03:39.646Z,1000.59
2018-04-29T00:04:39.626Z,1000.58
2018-04-29T00:05:39.605Z,1000.61
2018-04-29T00:06:39.582Z,1000.57
2018-04-29T00:07:39.561Z,1000.65
2018-04-29T00:08:39.536Z,1000.65
2018-04-29T00:09:39.516Z,1000.73
2018-04-29T00:10:39.493Z,1000.7
2018-04-29T00:11:39.471Z,1000.74
2018-04-29T00:12:39.448Z,1000.68
2018-04-29T00:13:39.428Z,1000.69
2018-04-29T00:14:39.405Z,1000.68
2018-04-29T00:15:39.381Z,1000.67
2018-04-29T00:16:39.360Z,1000.68
2018-04-29T00:17:39.338Z,1000.66
2018-04-29T00:18:39.316Z,1000.64
2018-04-29T00:19:39.294Z,1000.66
2018-04-29T00:20:39.273Z,1000.64
2018-04-29T00:21:39.247Z,1000.62
2018-04-29T00:22:39.227Z,1000.57
2018-04-29T00:23:39.204Z,1000.55
2018-04-29T00:24:39.182Z,1000.48
2018-04-29T00:25:39.160Z,1000.44
2018-04-29T00:26:39.141Z,1000.43
2018-04-29T00:27:39.115Z,1000.48
2018-04-29T00:28:39.092Z,1000.51
2018-04-29T00:29:39.070Z,1000.52
2018-04-29T00:30:39.048Z,1000.51
2018-04-29T00:31:39.027Z,1000.49
2018-04-29T00:32:39.004Z,1000.51
2018-04-29T00:33:38.982Z,1000.48
2018-04-29T00:34:38.959Z,1000.45
2018-04-29T00:35:38.936Z,1000.49
2018-04-29T00:36:38.913Z,1000.47
2018-04-29T00:37:38.890Z,1000.46
2018-04-29T00:38:38.896Z,1000.5
2018-04-29T00:39:38.845Z,1000.45
2018-04-29T00:40:38.822Z,1000.49
2018-04-29T00:41:38.801Z,1000.51
2018-04-29T00:42:38.779Z,1000.51
2018-04-29T00:43:38.754Z,1000.48
2018-04-29T00:44:38.732Z,1000.43
2018-04-29T00:45:38.710Z,1000.48
2018-04-29T00:46:38.688Z,1000.44
2018-04-29T00:47:38.664Z,1000.43
2018-04-29T00:48:38.642Z,1000.42
2018-04-29T00:49:38.628Z,1000.41
2018-04-29T00:50:38.598Z,1000.41
2018-04-29T00:51:38.573Z,1000.41
2018-04-29T00:52:38.555Z,1000.39
2018-04-29T00:53:38.528Z,1000.42
2018-04-29T00:54:38.503Z,1000.38
2018-04-29T00:55:38.482Z,1000.38
2018-04-29T00:56:38.459Z,1000.35
2018-04-29T00:57:38.437Z,1000.36
2018-04-29T00:58:38.412Z,1000.39
2018-04-29T00:59:38.388Z,1000.37
2018-04-29T01:00:38.366Z,1000.39
2018-04-29T01:01:38.343Z,1000.37
2018-04-29T01:02:38.319Z,1000.38
2018-04-29T01:03:38.298Z,1000.35
2018-04-29T01:04:38.275Z,1000.37
2018-04-29T01:05:38.250Z,1000.33
2018-04-29T01:06:38.227Z,1000.34
2018-04-29T01:07:38.203Z,1000.3
2018-04-29T01:08:38.185Z,1000.29
2018-04-29T01:09:38.158Z,1000.31
2018-04-29T01:10:38.133Z,1000.27
2018-04-29T01:11:38.111Z,1000.24
2018-04-29T01:12:38.087Z,1000.24
2018-04-29T01:13:38.064Z,1000.27
2018-04-29T01:14:38.041Z,1000.29
2018-04-29T01:15:38.117Z,1000.28
2018-04-29T01:16:37.994Z,1000.27
2018-04-29T01:17:37.975Z,1000.27
2018-04-29T01:18:37.947Z,1000.23
2018-04-29T01:19:37.929Z,1000.25
2018-04-29T01:20:37.900Z,1000.25
2018-04-29T01:21:37.876Z,1000.3
2018-04-29T01:22:37.853Z,1000.27
2018-04-29T01:23:37.830Z,1000.33
2018-04-29T01:24:37.806Z,1000.36
2018-04-29T01:25:37.787Z,1000.39
2018-04-29T01:26:37.764Z,1000.41
2018-04-29T01:27:37.735Z,1000.41
2018-04-29T01:28:37.711Z,1000.38
2018-04-29T01:29:37.690Z,1000.38
2018-04-29T01:30:37.664Z,1000.36
2018-04-29T01:31:37.640Z,1000.32
2018-04-29T01:32:37.616Z,1000.3
2018-04-29T01:33:37.592Z,1000.31
2018-04-29T01:34:37.568Z,1000.33
2018-04-29T01:35:37.545Z,1000.31
2018-04-29T01:36:37.523Z,1000.29
2018-04-29T01:37:37.497Z,1000.26
2018-04-29T01:38:37.751Z,1000.29
2018-04-29T01:39:37.449Z,1000.24
2018-04-29T01:40:37.426Z,1000.22
2018-04-29T01:41:37.403Z,1000.16
2018-04-29T01:42:37.379Z,1000.23
2018-04-29T01:43:37.355Z,1000.17
2018-04-29T01:44:37.336Z,1000.13
2018-04-29T01:45:37.307Z,1000.15
2018-04-29T01:46:37.282Z,1000.17
2018-04-29T01:47:37.260Z,1000.2
2018-04-29T01:48:37.236Z,1000.24
2018-04-29T01:49:37.210Z,1000.27
2018-04-29T01:50:37.191Z,1000.24
2018-04-29T01:51:37.168Z,1000.24
2018-04-29T01:52:37.143Z,1000.24
2018-04-29T01:53:37.115Z,1000.21
2018-04-29T01:54:37.092Z,1000.23
2018-04-29T01:55:37.068Z,1000.15
2018-04-29T01:56:37.044Z,1000.14
2018-04-29T01:57:37.020Z,1000.11
2018-04-29T01:58:37.001Z,1000.13
2018-04-29T01:59:36.973Z,1000.11
2018-04-29T02:00:36.947Z,1000.1
2018-04-29T02:01:36.927Z,1000.1
2018-04-29T02:02:36.900Z,1000.11
2018-04-29T02:03:36.876Z,1000.1
2018-04-29T02:04:36.854Z,1000.11
2018-04-29T02:05:36.827Z,1000.1
2018-04-29T02:06:36.808Z,1000.12
2018-04-29T02:07:36.778Z,1000.13
2018-04-29T02:08:36.755Z,1000.12
2018-04-29T02:09:36.732Z,1000.11
2018-04-29T02:10:36.709Z,1000.06
2018-04-29T02:11:36.682Z,1000.01
2018-04-29T02:12:36.658Z,1000.01
2018-04-29T02:13:36.633Z,1000.03
2018-04-29T02:14:36.609Z,1000.03
2018-04-29T02:15:36.586Z,1000.04
2018-04-29T02:16:36.561Z,1000.03
2018-04-29T02:17:36.536Z,1000.03
2018-04-29T02:18:36.513Z,1000.06
2018-04-29T02:19:36.489Z,1000.06
2018-04-29T02:20:36.464Z,1000.09
2018-04-29T02:21:36.440Z,1000.05
2018-04-29T02:22:36.415Z,1000.1
2018-04-29T02:23:36.390Z,1000.03
2018-04-29T02:24:36.367Z,1000.04
2018-04-29T02:25:36.347Z,1000.01
2018-04-29T02:26:36.318Z,1000
2018-04-29T02:27:36.377Z,999.93
2018-04-29T02:28:36.269Z,999.91
2018-04-29T02:29:36.245Z,999.89
2018-04-29T02:30:36.223Z,999.85
2018-04-29T02:31:36.200Z,999.83
2018-04-29T02:32:36.172Z,999.82
2018-04-29T02:33:36.146Z,999.82
2018-04-29T02:34:36.221Z,999.76
2018-04-29T02:35:36.099Z,999.75
2018-04-29T02:36:36.073Z,999.8
2018-04-29T02:37:36.049Z,999.85
2018-04-29T02:38:36.024Z,999.91
2018-04-29T02:39:36.001Z,999.96
2018-04-29T02:40:35.975Z,999.96
2018-04-29T02:41:35.951Z,999.95
2018-04-29T02:42:35.926Z,999.99
2018-04-29T02:43:35.903Z,999.92
2018-04-29T02:44:35.877Z,999.92
2018-04-29T02:45:35.853Z,999.87
2018-04-29T02:46:35.828Z,999.82
2018-04-29T02:47:35.804Z,999.79
2018-04-29T02:48:35.780Z,999.75
2018-04-29T02:49:35.754Z,999.77
2018-04-29T02:50:35.730Z,999.73
2018-04-29T02:51:35.704Z,999.72
2018-04-29T02:52:35.682Z,999.7
2018-04-29T02:53:35.655Z,999.68
2018-04-29T02:54:35.630Z,999.65
2018-04-29T02:55:35.605Z,999.68
2018-04-29T02:56:35.581Z,999.66
2018-04-29T02:57:35.558Z,999.62
2018-04-29T02:58:35.531Z,999.6
2018-04-29T02:59:35.507Z,999.63
2018-04-29T03:00:35.483Z,999.6
2018-04-29T03:01:35.458Z,999.61
2018-04-29T03:02:35.437Z,999.62
2018-04-29T03:03:35.415Z,999.6
2018-04-29T03:04:35.383Z,999.6
2018-04-29T03:05:35.359Z,999.55
2018-04-29T03:06:35.334Z,999.51
2018-04-29T03:07:35.313Z,999.53
2018-04-29T03:08:35.284Z,999.56
2018-04-29T03:09:35.264Z,999.58
2018-04-29T03:10:35.237Z,999.62
2018-04-29T03:11:35.209Z,999.64
2018-04-29T03:12:35.183Z,999.69
2018-04-29T03:13:35.160Z,999.73
2018-04-29T03:14:35.135Z,999.71
2018-04-29T03:15:35.110Z,999.7
2018-04-29T03:16:35.089Z,999.7
2018-04-29T03:17:35.059Z,999.75
2018-04-29T03:18:35.035Z,999.73
2018-04-29T03:19:35.010Z,999.76
2018-04-29T03:20:34.984Z,999.79
2018-04-29T03:21:34.959Z,999.78
2018-04-29T03:22:34.933Z,999.76
2018-04-29T03:23:34.911Z,999.79
2018-04-29T03:24:34.884Z,999.79
2018-04-29T03:25:34.859Z,999.77
2018-04-29T03:26:34.834Z,999.78
2018-04-29T03:27:34.814Z,999.76
2018-04-29T03:28:34.787Z,999.73
2018-04-29T03:29:34.759Z,999.75
2018-04-29T03:30:34.742Z,999.71
2018-04-29T03:31:34.710Z,999.66
2018-04-29T03:32:34.683Z,999.66
2018-04-29T03:33:34.658Z,999.59
2018-04-29T03:34:34.634Z,999.54
2018-04-29T03:35:34.607Z,999.49
2018-04-29T03:36:34.584Z,999.5
2018-04-29T03:37:34.558Z,999.47
2018-04-29T03:38:34.533Z,999.48
2018-04-29T03:39:34.509Z,999.49
2018-04-29T03:40:34.483Z,999.52
2018-04-29T03:41:34.459Z,999.5
2018-04-29T03:42:34.433Z,999.53
2018-04-29T03:43:34.408Z,999.51
2018-04-29T03:44:34.384Z,999.53
2018-04-29T03:45:34.359Z,999.55
2018-04-29T03:46:34.332Z,999.56
2018-04-29T03:47:34.308Z,999.53
2018-04-29T03:48:34.282Z,999.54
2018-04-29T03:49:34.256Z,999.52
2018-04-29T03:50:34.262Z,999.5
2018-04-29T03:51:34.208Z,999.49
2018-04-29T03:52:34.181Z,999.51
2018-04-29T03:53:34.156Z,999.5
2018-04-29T03:54:34.132Z,999.48
2018-04-29T03:55:34.106Z,999.48
2018-04-29T03:56:34.082Z,999.46
2018-04-29T03:57:34.054Z,999.44
2018-04-29T03:58:34.034Z,999.45
2018-04-29T03:59:34.006Z,999.44
2018-04-29T04:00:33.980Z,999.44
2018-04-29T04:01:33.956Z,999.4
2018-04-29T04:02:34.030Z,999.46
2018-04-29T04:03:33.911Z,999.48
2018-04-29T04:04:33.880Z,999.44
2018-04-29T04:05:33.855Z,999.44
2018-04-29T04:06:33.829Z,999.46
2018-04-29T04:07:33.806Z,999.43
2018-04-29T04:08:33.778Z,999.44
2018-04-29T04:09:33.753Z,999.41
2018-04-29T04:10:33.730Z,999.43
2018-04-29T04:11:33.704Z,999.42
2018-04-29T04:12:33.691Z,999.37
2018-04-29T04:13:33.652Z,999.32
2018-04-29T04:14:33.628Z,999.3
2018-04-29T04:15:33.601Z,999.28
2018-04-29T04:16:33.577Z,999.28
2018-04-29T04:17:33.552Z,999.24
2018-04-29T04:18:33.527Z,999.25
2018-04-29T04:19:33.501Z,999.25
2018-04-29T04:20:33.476Z,999.31
2018-04-29T04:21:33.452Z,999.26
2018-04-29T04:22:33.426Z,999.26
2018-04-29T04:23:33.400Z,999.24
2018-04-29T04:24:33.375Z,999.24
2018-04-29T04:25:33.355Z,999.26
2018-04-29T04:26:33.324Z,999.27
2018-04-29T04:27:33.301Z,999.23
2018-04-29T04:28:33.276Z,999.27
2018-04-29T04:29:33.252Z,999.3
2018-04-29T04:30:33.226Z,999.34
2018-04-29T04:31:33.202Z,999.36
2018-04-29T04:32:33.176Z,999.34
2018-04-29T04:33:33.151Z,999.39
2018-04-29T04:34:33.128Z,999.41
2018-04-29T04:35:33.102Z,999.37
2018-04-29T04:36:33.077Z,999.38
2018-04-29T04:37:33.053Z,999.39
2018-04-29T04:38:33.032Z,999.38
2018-04-29T04:39:33.008Z,999.37
2018-04-29T04:40:32.978Z,999.34
2018-04-29T04:41:32.958Z,999.28
2018-04-29T04:42:32.927Z,999.24
2018-04-29T04:43:32.904Z,999.24
2018-04-29T04:44:32.880Z,999.25
2018-04-29T04:45:32.856Z,999.23
2018-04-29T04:46:32.830Z,999.21
2018-04-29T04:47:32.807Z,999.23
2018-04-29T04:48:32.781Z,999.25
2018-04-29T04:49:32.757Z,999.29
2018-04-29T04:50:32.734Z,999.27
2018-04-29T04:51:32.709Z,999.3
2018-04-29T04:52:32.683Z,999.35
2018-04-29T04:53:32.659Z,999.36
2018-04-29T04:54:32.634Z,999.34
2018-04-29T04:55:32.610Z,999.34
2018-04-29T04:56:32.590Z,999.31
2018-04-29T04:57:32.562Z,999.29
2018-04-29T04:58:32.538Z,999.27
2018-04-29T04:59:32.515Z,999.27
2018-04-29T05:00:32.488Z,999.29
2018-04-29T05:01:32.464Z,999.32
2018-04-29T05:02:32.440Z,999.33
2018-04-29T05:03:32.415Z,999.33
2018-04-29T05:04:32.390Z,999.26
2018-04-29T05:05:32.368Z,999.18
2018-04-29T05:06:32.341Z,999.27
2018-04-29T05:07:32.317Z,999.27
2018-04-29T05:08:32.292Z,999.28
2018-04-29T05:09:32.269Z,999.33
2018-04-29T05:10:32.244Z,999.34
2018-04-29T05:11:32.219Z,999.34
2018-04-29T05:12:32.195Z,999.33
2018-04-29T05:13:32.171Z,999.28
2018-04-29T05:14:32.151Z,999.28
2018-04-29T05:15:32.124Z,999.31
2018-04-29T05:16:32.100Z,999.33
2018-04-29T05:17:32.078Z,999.29
2018-04-29T05:18:32.050Z,999.27
2018-04-29T05:19:32.027Z,999.24
2018-04-29T05:20:32.003Z,999.2
2018-04-29T05:21:31.978Z,999.18
2018-04-29T05:22:31.954Z,999.11
2018-04-29T05:23:31.931Z,999.11
2018-04-29T05:24:31.905Z,999.14
2018-04-29T05:25:31.884Z,999.15
2018-04-29T05:26:31.859Z,999.13
2018-04-29T05:27:31.834Z,999.16
2018-04-29T05:28:31.809Z,999.17
2018-04-29T05:29:31.786Z,999.18
2018-04-29T05:30:31.767Z,999.17
2018-04-29T05:31:31.738Z,999.24
2018-04-29T05:32:31.714Z,999.2
2018-04-29T05:33:31.695Z,999.22
2018-04-29T05:34:31.668Z,999.26
2018-04-29T05:35:31.643Z,999.31
2018-04-29T05:36:31.619Z,999.33
2018-04-29T05:37:31.596Z,999.33
2018-04-29T05:38:31.577Z,999.35
2018-04-29T05:39:31.552Z,999.36
2018-04-29T05:40:31.527Z,999.38
2018-04-29T05:41:31.508Z,999.42
2018-04-29T05:42:31.483Z,999.5
2018-04-29T05:43:31.460Z,999.53
2018-04-29T05:44:31.437Z,999.54
2018-04-29T05:45:31.414Z,999.55
2018-04-29T05:46:31.391Z,999.57
2018-04-29T05:47:31.369Z,999.56
2018-04-29T05:48:31.347Z,999.53
2018-04-29T05:49:31.323Z,999.48
2018-04-29T05:50:31.302Z,999.48
2018-04-29T05:51:31.279Z,999.49
2018-04-29T05:52:31.259Z,999.5
2018-04-29T05:53:31.236Z,999.5
2018-04-29T05:54:31.222Z,999.58
2018-04-29T05:55:31.200Z,999.62
2018-04-29T05:56:31.175Z,999.56
2018-04-29T05:57:31.149Z,999.51
2018-04-29T05:58:31.128Z,999.46
2018-04-29T05:59:31.107Z,999.42
2018-04-29T06:00:31.086Z,999.39
2018-04-29T06:01:31.064Z,999.35
2018-04-29T06:02:31.042Z,999.36
2018-04-29T06:03:31.022Z,999.33
2018-04-29T06:04:31.002Z,999.35
2018-04-29T06:05:30.981Z,999.34
2018-04-29T06:06:31.069Z,999.3
2018-04-29T06:07:30.941Z,999.25
2018-04-29T06:08:30.920Z,999.21
2018-04-29T06:09:30.900Z,999.19
2018-04-29T06:10:30.879Z,999.11
2018-04-29T06:11:30.859Z,999.09
2018-04-29T06:12:30.903Z,999.05
2018-04-29T06:13:30.820Z,999.03
2018-04-29T06:14:30.888Z,999.03
2018-04-29T06:15:30.782Z,999.04
2018-04-29T06:16:30.761Z,999.06
2018-04-29T06:17:30.741Z,999.04
2018-04-29T06:18:30.723Z,999
2018-04-29T06:19:30.701Z,999
2018-04-29T06:20:30.700Z,998.94
2018-04-29T06:21:30.668Z,998.93
2018-04-29T06:22:30.646Z,998.95
2018-04-29T06:23:30.625Z,999.01
2018-04-29T06:24:30.614Z,998.98
2018-04-29T06:25:30.588Z,999
2018-04-29T06:26:30.568Z,998.98
2018-04-29T06:27:30.549Z,998.95
2018-04-29T06:28:30.536Z,998.9
2018-04-29T06:29:30.513Z,998.85
2018-04-29T06:30:30.493Z,998.81
2018-04-29T06:31:30.474Z,998.77
2018-04-29T06:32:30.457Z,998.69
2018-04-29T06:33:30.438Z,998.64
2018-04-29T06:34:30.419Z,998.62
2018-04-29T06:35:30.401Z,998.54
2018-04-29T06:36:30.382Z,998.5
2018-04-29T06:37:30.365Z,998.5
2018-04-29T06:38:30.346Z,998.47
2018-04-29T06:39:30.328Z,998.46
2018-04-29T06:40:30.316Z,998.42
2018-04-29T06:41:30.290Z,998.44
2018-04-29T06:42:30.270Z,998.43
2018-04-29T06:43:30.253Z,998.48
2018-04-29T06:44:30.233Z,998.53
2018-04-29T06:45:30.215Z,998.56
2018-04-29T06:46:30.196Z,998.61
2018-04-29T06:47:30.177Z,998.58
2018-04-29T06:48:30.159Z,998.58
2018-04-29T06:49:30.139Z,998.54
2018-04-29T06:50:30.120Z,998.52
2018-04-29T06:51:30.102Z,998.5
2018-04-29T06:52:30.085Z,998.46
2018-04-29T06:53:30.119Z,998.45
2018-04-29T06:54:30.053Z,998.45
2018-04-29T06:55:30.030Z,998.47
2018-04-29T06:56:30.021Z,998.49
2018-04-29T06:57:29.992Z,998.49
2018-04-29T06:58:29.973Z,998.5
2018-04-29T06:59:29.955Z,998.46
2018-04-29T07:00:29.935Z,998.49
2018-04-29T07:01:29.916Z,998.48
2018-04-29T07:02:29.899Z,998.5
2018-04-29T07:03:29.879Z,998.47
2018-04-29T07:04:29.864Z,998.46
2018-04-29T07:05:29.842Z,998.46
2018-04-29T07:06:29.823Z,998.38
2018-04-29T07:07:29.807Z,998.42
2018-04-29T07:08:29.785Z,998.38
2018-04-29T07:09:29.768Z,998.42
2018-04-29T07:10:29.747Z,998.44
2018-04-29T07:11:29.729Z,998.49
2018-04-29T07:12:29.711Z,998.5
2018-04-29T07:13:29.693Z,998.5
2018-04-29T07:14:29.672Z,998.52
2018-04-29T07:15:29.655Z,998.54
2018-04-29T07:16:29.636Z,998.61
2018-04-29T07:17:29.617Z,998.66
2018-04-29T07:18:29.601Z,998.66
2018-04-29T07:19:29.580Z,998.72
2018-04-29T07:20:29.562Z,998.71
2018-04-29T07:21:29.542Z,998.71
2018-04-29T07:22:29.525Z,998.63
2018-04-29T07:23:29.507Z,998.59
2018-04-29T07:24:29.493Z,998.56
2018-04-29T07:25:29.470Z,998.56
2018-04-29T07:26:29.451Z,998.54
2018-04-29T07:27:29.433Z,998.53
2018-04-29T07:28:29.418Z,998.58
2018-04-29T07:29:29.396Z,998.67
2018-04-29T07:30:29.378Z,998.73
2018-04-29T07:31:29.362Z,998.74
2018-04-29T07:32:29.340Z,998.67
2018-04-29T07:33:29.322Z,998.65
2018-04-29T07:34:29.302Z,998.71
2018-04-29T07:35:29.287Z,998.75
2018-04-29T07:36:29.265Z,998.72
2018-04-29T07:37:29.246Z,998.8
2018-04-29T07:38:29.228Z,998.79
2018-04-29T07:39:29.209Z,998.81
2018-04-29T07:40:29.188Z,998.85
2018-04-29T07:41:29.170Z,998.87
2018-04-29T07:42:29.151Z,998.9
2018-04-29T07:43:29.132Z,998.98
2018-04-29T07:44:29.112Z,999.03
2018-04-29T07:45:29.094Z,999.16
2018-04-29T07:46:29.130Z,999.17
2018-04-29T07:47:29.055Z,999.18
2018-04-29T07:48:29.034Z,999.17
2018-04-29T07:49:29.017Z,999.08
2018-04-29T07:50:28.994Z,999.03
2018-04-29T07:51:28.978Z,999.03
2018-04-29T07:52:29.029Z,999
2018-04-29T07:53:28.934Z,999.01
2018-04-29T07:54:28.913Z,999.08
2018-04-29T07:55:28.895Z,999.09
2018-04-29T07:56:28.875Z,999.17
2018-04-29T07:57:28.854Z,999.19
2018-04-29T07:58:28.837Z,999.18
2018-04-29T07:59:28.812Z,999.2
2018-04-29T08:00:28.793Z,999.17
2018-04-29T08:01:28.773Z,999.13
2018-04-29T08:02:28.751Z,999.01
2018-04-29T08:03:28.732Z,998.92
2018-04-29T08:04:28.713Z,998.86
2018-04-29T08:05:28.688Z,998.88
2018-04-29T08:06:28.670Z,998.86
2018-04-29T08:07:28.660Z,998.8
2018-04-29T08:08:28.629Z,998.9
2018-04-29T08:09:28.668Z,998.92
2018-04-29T08:10:28.834Z,998.9
2018-04-29T08:11:28.660Z,998.84
2018-04-29T08:12:28.548Z,998.78
2018-04-29T08:13:28.528Z,998.71
2018-04-29T08:14:28.509Z,998.59
2018-04-29T08:15:28.496Z,998.55
2018-04-29T08:16:28.468Z,998.6
2018-04-29T08:17:28.447Z,998.65
2018-04-29T08:18:28.449Z,998.71
2018-04-29T08:19:28.408Z,998.73
2018-04-29T08:20:28.388Z,998.75
2018-04-29T08:21:28.369Z,998.7
2018-04-29T08:22:28.350Z,998.7
2018-04-29T08:23:28.331Z,998.65
2018-04-29T08:24:28.311Z,998.63
2018-04-29T08:25:28.292Z,998.63
2018-04-29T08:26:28.271Z,998.62
2018-04-29T08:27:28.257Z,998.61
2018-04-29T08:28:28.231Z,998.52
2018-04-29T08:29:28.213Z,998.49
2018-04-29T08:30:28.194Z,998.46
2018-04-29T08:31:28.174Z,998.48
2018-04-29T08:32:28.155Z,998.5
2018-04-29T08:33:28.136Z,998.49
2018-04-29T08:34:28.116Z,998.5
2018-04-29T08:35:28.099Z,998.51
2018-04-29T08:36:28.079Z,998.46
2018-04-29T08:37:28.060Z,998.47
2018-04-29T08:38:28.041Z,998.47
2018-04-29T08:39:28.024Z,998.47
2018-04-29T08:40:28.004Z,998.42
2018-04-29T08:41:27.986Z,998.45
2018-04-29T08:42:27.974Z,998.47
2018-04-29T08:43:27.949Z,998.48
2018-04-29T08:44:27.931Z,998.44
2018-04-29T08:45:27.911Z,998.41
2018-04-29T08:46:27.895Z,998.37
2018-04-29T08:47:27.874Z,998.28
2018-04-29T08:48:27.857Z,998.26
2018-04-29T08:49:27.867Z,998.29
2018-04-29T08:50:27.820Z,998.28
2018-04-29T08:51:27.804Z,998.36
2018-04-29T08:52:27.784Z,998.36
2018-04-29T08:53:27.763Z,998.43
2018-04-29T08:54:27.748Z,998.46
2018-04-29T08:55:27.729Z,998.46
2018-04-29T08:56:27.709Z,998.51
2018-04-29T08:57:27.699Z,998.58
2018-04-29T08:58:27.674Z,998.57
2018-04-29T08:59:27.660Z,998.56
2018-04-29T09:00:27.639Z,998.57
2018-04-29T09:01:27.621Z,998.5
2018-04-29T09:02:27.604Z,998.45
2018-04-29T09:03:27.587Z,998.45
2018-04-29T09:04:27.570Z,998.44
2018-04-29T09:05:27.552Z,998.44
2018-04-29T09:06:27.538Z,998.4
2018-04-29T09:07:27.519Z,998.4
2018-04-29T09:08:27.502Z,998.39
2018-04-29T09:09:27.485Z,998.4
2018-04-29T09:10:27.473Z,998.38
2018-04-29T09:11:27.456Z,998.37
2018-04-29T09:12:27.489Z,998.29
2018-04-29T09:13:27.418Z,998.28
2018-04-29T09:14:27.403Z,998.28
2018-04-29T09:15:27.384Z,998.28
2018-04-29T09:16:27.365Z,998.25
2018-04-29T09:17:27.380Z,998.2
2018-04-29T09:18:27.330Z,998.19
2018-04-29T09:19:27.311Z,998.18
2018-04-29T09:20:27.294Z,998.2
2018-04-29T09:21:27.284Z,998.19
2018-04-29T09:22:27.262Z,998.18
2018-04-29T09:23:27.243Z,998.28
2018-04-29T09:24:27.223Z,998.22
2018-04-29T09:25:27.207Z,998.27
2018-04-29T09:26:27.187Z,998.25
2018-04-29T09:27:27.172Z,998.28
2018-04-29T09:28:27.155Z,998.27
2018-04-29T09:29:27.140Z,998.29
2018-04-29T09:30:27.121Z,998.26
2018-04-29T09:31:27.107Z,998.22
2018-04-29T09:32:27.092Z,998.15
2018-04-29T09:33:27.076Z,998.14
2018-04-29T09:34:27.062Z,998.1
2018-04-29T09:35:27.048Z,998.18
2018-04-29T09:36:27.033Z,998.11
2018-04-29T09:37:27.019Z,998.17
2018-04-29T09:38:27.004Z,998.18
2018-04-29T09:39:26.990Z,998.18
2018-04-29T09:40:26.976Z,998.16
2018-04-29T09:41:26.961Z,998.13
2018-04-29T09:42:26.948Z,998.09
2018-04-29T09:43:26.983Z,998.12
2018-04-29T09:44:26.921Z,998.07
2018-04-29T09:45:26.907Z,997.98
2018-04-29T09:46:26.896Z,997.99
2018-04-29T09:47:26.881Z,997.96
2018-04-29T09:48:26.871Z,997.93
2018-04-29T09:49:26.856Z,997.98
2018-04-29T09:50:26.843Z,997.94
2018-04-29T09:51:26.828Z,997.92
2018-04-29T09:52:26.854Z,997.9
2018-04-29T09:53:26.804Z,997.92
2018-04-29T09:54:26.789Z,997.92
2018-04-29T09:55:26.778Z,997.86
2018-04-29T09:56:26.832Z,997.87
2018-04-29T09:57:26.757Z,997.85
2018-04-29T09:58:26.758Z,997.78
2018-04-29T09:59:26.724Z,997.71
2018-04-29T10:00:26.724Z,997.63
2018-04-29T10:01:26.698Z,997.62
2018-04-29T10:02:26.685Z,997.68
2018-04-29T10:03:26.671Z,997.68
2018-04-29T10:04:26.668Z,997.65
2018-04-29T10:05:26.643Z,997.61
2018-04-29T10:06:26.629Z,997.51
2018-04-29T10:07:26.614Z,997.51
2018-04-29T10:08:26.601Z,997.48
2018-04-29T10:09:26.671Z,997.46
2018-04-29T10:10:26.574Z,997.43
2018-04-29T10:11:26.558Z,997.44
2018-04-29T10:12:26.545Z,997.41
2018-04-29T10:13:26.533Z,997.38
2018-04-29T10:14:26.516Z,997.36
2018-04-29T10:15:26.507Z,997.41
2018-04-29T10:16:26.487Z,997.46
2018-04-29T10:17:26.478Z,997.44
2018-04-29T10:18:26.459Z,997.46
2018-04-29T10:19:26.447Z,997.5
2018-04-29T10:20:26.429Z,997.53
2018-04-29T10:21:26.414Z,997.5
2018-04-29T10:22:26.400Z,997.55
2018-04-29T10:23:26.390Z,997.54
2018-04-29T10:24:26.373Z,997.55
2018-04-29T10:25:26.355Z,997.51
2018-04-29T10:26:26.341Z,997.46
2018-04-29T10:27:26.328Z,997.46
2018-04-29T10:28:26.312Z,997.49
2018-04-29T10:29:26.296Z,997.5
2018-04-29T10:30:26.283Z,997.43
2018-04-29T10:31:26.268Z,997.4
2018-04-29T10:32:26.332Z,997.37
2018-04-29T10:33:26.238Z,997.35
2018-04-29T10:34:26.224Z,997.37
2018-04-29T10:35:26.209Z,997.35
2018-04-29T10:36:26.197Z,997.3
2018-04-29T10:37:26.183Z,997.31
2018-04-29T10:38:26.167Z,997.27
2018-04-29T10:39:26.151Z,997.2
2018-04-29T10:40:26.138Z,997.22
2018-04-29T10:41:26.125Z,997.17
2018-04-29T10:42:26.110Z,997.15
2018-04-29T10:43:26.096Z,997.19
2018-04-29T10:44:26.082Z,997.25
2018-04-29T10:45:26.067Z,997.21
2018-04-29T10:46:26.053Z,997.19
2018-04-29T10:47:26.039Z,997.19
2018-04-29T10:48:26.027Z,997.13
2018-04-29T10:49:26.010Z,997.09
2018-04-29T10:50:25.994Z,997.03
2018-04-29T10:51:25.985Z,996.94
2018-04-29T10:52:26.015Z,996.93
2018-04-29T10:53:25.949Z,996.86
2018-04-29T10:54:25.934Z,996.77
2018-04-29T10:55:25.919Z,996.75
2018-04-29T10:56:25.904Z,996.68
2018-04-29T10:57:25.888Z,996.79
2018-04-29T10:58:25.873Z,996.69
2018-04-29T10:59:25.856Z,996.62
2018-04-29T11:00:25.842Z,996.58
2018-04-29T11:01:25.825Z,996.57
2018-04-29T11:02:25.809Z,996.63
2018-04-29T11:03:25.794Z,996.61
2018-04-29T11:04:25.992Z,996.62
2018-04-29T11:05:25.763Z,996.64
2018-04-29T11:06:25.749Z,996.64
2018-04-29T11:07:25.732Z,996.69
2018-04-29T11:08:25.717Z,996.67
2018-04-29T11:09:25.703Z,996.69
2018-04-29T11:10:25.687Z,996.69
2018-04-29T11:11:25.678Z,996.64
2018-04-29T11:12:25.656Z,996.62
2018-04-29T11:13:25.643Z,996.6
2018-04-29T11:14:25.627Z,996.54
2018-04-29T11:15:25.613Z,996.55
2018-04-29T11:16:25.599Z,996.63
2018-04-29T11:17:25.584Z,996.59
2018-04-29T11:18:25.622Z,996.51
2018-04-29T11:19:25.571Z,996.42
2018-04-29T11:20:25.544Z,996.27
2018-04-29T11:21:25.529Z,996.2
2018-04-29T11:22:25.528Z,996.11
2018-04-29T11:23:25.501Z,996
2018-04-29T11:24:25.488Z,996
2018-04-29T11:25:25.474Z,995.95
2018-04-29T11:26:25.463Z,995.88
2018-04-29T11:27:25.448Z,995.9
2018-04-29T11:28:25.435Z,995.88
2018-04-29T11:29:25.459Z,995.93
2018-04-29T11:30:25.412Z,996.06
2018-04-29T11:31:25.394Z,996.16
2018-04-29T11:32:25.381Z,996.27
2018-04-29T11:33:25.373Z,996.3
2018-04-29T11:34:25.368Z,996.38
2018-04-29T11:35:25.343Z,996.33
2018-04-29T11:36:25.330Z,996.33
2018-04-29T11:37:25.324Z,996.28
2018-04-29T11:38:25.307Z,996.24
2018-04-29T11:39:25.309Z,996.24
2018-04-29T11:40:25.344Z,996.25
2018-04-29T11:41:25.267Z,996.26
2018-04-29T11:42:25.252Z,996.15
2018-04-29T11:43:25.239Z,996.14
2018-04-29T11:44:25.226Z,996.15
2018-04-29T11:45:25.216Z,996.14
2018-04-29T11:46:25.202Z,996.07
2018-04-29T11:47:25.190Z,996.04
2018-04-29T11:48:25.175Z,996.04
2018-04-29T11:49:25.187Z,996.01
2018-04-29T11:50:25.182Z,995.98
2018-04-29T11:51:25.139Z,996.03
2018-04-29T11:52:25.126Z,996.06
2018-04-29T11:53:25.115Z,995.99
2018-04-29T11:54:25.103Z,996
2018-04-29T11:55:25.089Z,995.95
2018-04-29T11:56:25.077Z,995.92
2018-04-29T11:57:25.066Z,995.9
2018-04-29T11:58:25.053Z,995.85
2018-04-29T11:59:25.041Z,995.84
2018-04-29T12:00:25.027Z,995.79
2018-04-29T12:01:25.021Z,995.75
2018-04-29T12:02:25.023Z,995.74
2018-04-29T12:03:24.993Z,995.77
2018-04-29T12:04:24.983Z,995.77
2018-04-29T12:05:24.967Z,995.74
2018-04-29T12:06:24.956Z,995.75
2018-04-29T12:07:24.945Z,995.74
2018-04-29T12:08:24.935Z,995.74
2018-04-29T12:09:24.922Z,995.71
2018-04-29T12:10:24.908Z,995.74
2018-04-29T12:11:24.898Z,995.76
2018-04-29T12:12:24.886Z,995.83
2018-04-29T12:13:24.875Z,995.81
2018-04-29T12:14:24.866Z,995.89
2018-04-29T12:15:24.849Z,995.88
2018-04-29T12:16:24.855Z,995.92
2018-04-29T12:17:24.827Z,996.01
2018-04-29T12:18:24.815Z,996
2018-04-29T12:19:24.809Z,996.05
2018-04-29T12:20:24.794Z,996.09
2018-04-29T12:21:24.782Z,996.1
2018-04-29T12:22:24.778Z,996.02
2018-04-29T12:23:24.759Z,995.95
2018-04-29T12:24:24.750Z,995.84
2018-04-29T12:25:24.744Z,995.73
2018-04-29T12:26:24.726Z,995.61
2018-04-29T12:27:24.714Z,995.55